createdAt,value
2022-12-03T00:02:16.671Z,1.10
2022-12-03T00:04:45.798Z,1.10
2022-12-03T00:07:16.686Z,1.20
2022-12-03T00:09:45.251Z,1.20
2022-12-03T00:12:13.269Z,1.30
2022-12-03T00:14:52.692Z,1.30
2022-12-03T00:17:21.671Z,1.40
2022-12-03T00:19:57.610Z,1.40
2022-12-03T00:22:36.182Z,1.40
2022-12-03T00:25:13.488Z,1.40
2022-12-03T00:27:41.754Z,1.40
2022-12-03T00:30:15.469Z,1.50
2022-12-03T00:32:43.804Z,1.50
2022-12-03T00:35:13.261Z,1.50
2022-12-03T00:37:41.326Z,1.50
2022-12-03T00:40:16.127Z,1.50
2022-12-03T00:42:44.369Z,1.60
2022-12-03T00:45:21.869Z,1.60
2022-12-03T00:47:59.449Z,1.60
2022-12-03T00:50:35.417Z,1.60
2022-12-03T00:53:03.880Z,1.60
2022-12-03T00:55:32.146Z,1.60
2022-12-03T00:58:00.807Z,1.60
2022-12-03T01:00:29.165Z,1.50
2022-12-03T01:02:57.189Z,1.50
2022-12-03T01:09:22.921Z,1.60
2022-12-03T01:11:50.136Z,1.50
2022-12-03T01:14:20.906Z,1.60
2022-12-03T01:16:51.561Z,1.50
2022-12-03T01:19:27.549Z,1.60
2022-12-03T01:21:56.331Z,1.50
2022-12-03T01:24:26.857Z,1.40
2022-12-03T01:26:59.936Z,1.40
2022-12-03T01:29:29.091Z,1.40
2022-12-03T01:32:18.368Z,1.40
2022-12-03T01:35:00.092Z,1.40
2022-12-03T01:37:31.032Z,1.10
2022-12-03T01:39:58.083Z,-0.40
2022-12-03T01:42:43.831Z,-1.90
2022-12-03T01:45:31.661Z,-2.70
2022-12-03T01:48:09.546Z,-3.30
2022-12-03T01:50:41.540Z,-3.90
2022-12-03T01:53:16.656Z,-4.10
2022-12-03T01:55:51.398Z,-4.40
2022-12-03T01:58:37.597Z,-4.50
2022-12-03T02:01:14.225Z,-4.50
2022-12-03T02:03:51.590Z,-4.50
2022-12-03T02:06:25.998Z,-4.70
2022-12-03T02:09:00.350Z,-4.90
2022-12-03T02:11:58.491Z,-4.80
2022-12-03T02:14:26.066Z,-4.80
2022-12-03T02:16:55.140Z,-5.00
2022-12-03T02:19:30.887Z,-5.20
2022-12-03T02:22:25.882Z,-5.40
2022-12-03T02:25:07.515Z,-5.50
2022-12-03T02:27:38.250Z,-5.50
2022-12-03T02:30:11.318Z,-4.00
2022-12-03T02:35:22.576Z,-3.50
2022-12-03T02:38:12.943Z,-4.40
2022-12-03T02:40:46.861Z,-4.80
2022-12-03T02:43:21.311Z,-5.00
2022-12-03T02:46:08.475Z,-5.10
2022-12-03T02:48:39.217Z,-5.20
2022-12-03T02:51:15.158Z,-5.30
2022-12-03T02:53:51.481Z,-5.30
2022-12-03T02:56:33.478Z,-5.50
2022-12-03T02:59:08.816Z,-5.60
2022-12-03T03:01:38.738Z,-5.60
2022-12-03T03:04:06.997Z,-5.50
2022-12-03T03:06:44.902Z,-5.60
2022-12-03T03:09:21.960Z,-5.70
2022-12-03T03:11:51.956Z,-5.80
2022-12-03T03:14:22.181Z,-5.80
2022-12-03T03:16:56.847Z,-5.80
2022-12-03T03:19:26.387Z,-5.90
2022-12-03T03:21:56.808Z,-5.90
2022-12-03T03:24:25.915Z,-6.00
2022-12-03T03:27:02.051Z,-6.00
2022-12-03T03:29:32.981Z,-5.90
2022-12-03T03:32:05.975Z,-4.70
2022-12-03T03:34:36.870Z,-3.90
2022-12-03T03:37:06.258Z,-3.30
2022-12-03T03:39:43.335Z,-2.90
2022-12-03T03:42:11.616Z,-2.60
2022-12-03T03:44:41.918Z,-2.30
2022-12-03T03:47:20.631Z,-2.00
2022-12-03T03:49:53.943Z,-1.70
2022-12-03T03:52:22.910Z,-1.50
2022-12-03T03:54:53.443Z,-1.20
2022-12-03T03:57:24.680Z,-1.00
2022-12-03T03:59:54.320Z,-0.80
2022-12-03T04:02:25.066Z,-0.60
2022-12-03T04:07:40.865Z,-0.20
2022-12-03T04:10:31.170Z,-0.10
2022-12-03T04:13:03.177Z,0.10
2022-12-03T04:15:32.069Z,0.20
2022-12-03T04:18:19.392Z,0.40
2022-12-03T04:20:47.796Z,0.40
2022-12-03T04:23:16.096Z,0.50
2022-12-03T04:26:05.398Z,0.60
2022-12-03T04:28:50.788Z,0.70
2022-12-03T04:31:39.397Z,0.70
2022-12-03T04:34:26.403Z,0.80
2022-12-03T04:36:56.516Z,0.90
2022-12-03T04:39:26.612Z,0.90
2022-12-03T04:41:55.145Z,0.90
2022-12-03T04:44:40.797Z,0.90
2022-12-03T04:47:16.911Z,1.00
2022-12-03T04:49:53.750Z,1.00
2022-12-03T04:52:29.725Z,1.00
2022-12-03T04:55:00.500Z,1.10
2022-12-03T04:57:28.896Z,1.10
2022-12-03T04:59:59.360Z,1.20
2022-12-03T05:02:29.793Z,1.20
2022-12-03T05:04:58.235Z,1.20
2022-12-03T05:07:36.952Z,1.20
2022-12-03T05:10:06.675Z,1.20
2022-12-03T05:12:36.366Z,1.30
2022-12-03T05:15:10.722Z,1.30
2022-12-03T05:17:38.864Z,1.30
2022-12-03T05:20:26.581Z,1.40
2022-12-03T05:22:54.898Z,1.40
2022-12-03T05:25:31.101Z,1.40
2022-12-03T05:28:12.201Z,1.50
2022-12-03T05:30:40.550Z,1.50
2022-12-03T05:33:09.630Z,1.50
2022-12-03T05:35:38.081Z,1.50
2022-12-03T05:38:06.353Z,1.50
2022-12-03T05:40:37.175Z,1.50
2022-12-03T05:43:06.031Z,1.50
2022-12-03T05:45:54.730Z,1.50
2022-12-03T05:48:30.972Z,1.50
2022-12-03T05:50:59.361Z,1.60
2022-12-03T05:53:29.742Z,1.60
2022-12-03T05:55:58.081Z,1.70
2022-12-03T05:58:28.919Z,1.60
2022-12-03T06:00:59.115Z,1.60
2022-12-03T06:03:35.895Z,1.70
2022-12-03T06:06:04.700Z,1.60
2022-12-03T06:08:32.945Z,1.60
2022-12-03T06:11:02.844Z,1.60
2022-12-03T06:13:33.690Z,1.60
2022-12-03T06:16:02.261Z,1.60
2022-12-03T06:18:42.205Z,1.60
2022-12-03T06:21:10.276Z,1.60
2022-12-03T06:23:45.911Z,1.70
2022-12-03T06:26:35.002Z,1.70
2022-12-03T06:29:03.230Z,1.70
2022-12-03T06:31:31.543Z,1.70
2022-12-03T06:34:02.150Z,1.70
2022-12-03T06:36:32.716Z,1.70
2022-12-03T06:39:02.621Z,1.70
2022-12-03T06:41:31.111Z,1.60
2022-12-03T06:43:59.440Z,1.60
2022-12-03T06:46:28.076Z,1.50
2022-12-03T06:49:00.041Z,1.50
2022-12-03T06:51:30.735Z,1.50
2022-12-03T06:53:59.350Z,1.50
2022-12-03T06:56:34.403Z,1.60
2022-12-03T06:59:05.500Z,1.60
2022-12-03T07:01:34.876Z,1.60
2022-12-03T07:04:03.131Z,1.70
2022-12-03T07:06:33.521Z,1.80
2022-12-03T07:09:03.501Z,1.80
2022-12-03T07:11:41.411Z,1.90
2022-12-03T07:14:12.152Z,1.90
2022-12-03T07:16:43.923Z,1.90
2022-12-03T07:19:18.839Z,1.80
2022-12-03T07:21:47.686Z,1.80
2022-12-03T07:24:16.030Z,1.90
2022-12-03T07:26:46.709Z,1.90
2022-12-03T07:29:16.815Z,1.90
2022-12-03T07:31:48.873Z,1.90
2022-12-03T07:34:18.095Z,1.90
2022-12-03T07:36:48.525Z,1.90
2022-12-03T07:39:18.122Z,1.90
2022-12-03T07:41:46.230Z,1.80
2022-12-03T07:44:16.557Z,1.80
2022-12-03T07:46:46.332Z,1.80
2022-12-03T07:49:14.617Z,1.90
2022-12-03T07:51:51.781Z,1.30
2022-12-03T07:54:30.142Z,-0.10
2022-12-03T07:57:05.632Z,-1.60
2022-12-03T07:59:34.162Z,-2.70
2022-12-03T08:02:04.014Z,-3.10
2022-12-03T08:04:32.563Z,-3.50
2022-12-03T08:07:02.201Z,-3.90
2022-12-03T08:09:33.582Z,-4.00
2022-12-03T08:12:08.616Z,-4.30
2022-12-03T08:14:38.676Z,-4.50
2022-12-03T08:17:23.882Z,-4.50
2022-12-03T08:19:53.923Z,-4.60
2022-12-03T08:22:25.877Z,-4.70
2022-12-03T08:24:55.774Z,-4.60
2022-12-03T08:27:32.185Z,-4.50
2022-12-03T08:30:08.057Z,-4.40
2022-12-03T08:32:38.981Z,-4.20
2022-12-03T08:35:21.558Z,-4.50
2022-12-03T08:38:23.371Z,-4.60
2022-12-03T08:40:55.444Z,-4.80
2022-12-03T08:43:28.751Z,-4.90
2022-12-03T08:45:58.790Z,-5.00
2022-12-03T08:48:36.773Z,-5.10
2022-12-03T08:51:27.959Z,-4.20
2022-12-03T08:54:10.675Z,-2.50
2022-12-03T08:56:41.753Z,-3.40
2022-12-03T08:59:24.305Z,-3.90
2022-12-03T09:01:56.942Z,-4.20
2022-12-03T09:04:46.460Z,-4.30
2022-12-03T09:07:14.780Z,-4.30
2022-12-03T09:09:41.716Z,-3.60
2022-12-03T09:12:18.866Z,-2.90
2022-12-03T09:14:47.305Z,-2.30
2022-12-03T09:17:15.617Z,-1.70
2022-12-03T09:19:46.378Z,-1.20
2022-12-03T09:22:17.559Z,-0.60
2022-12-03T09:24:45.351Z,-0.30
2022-12-03T09:27:14.021Z,0.00
2022-12-03T09:29:43.341Z,0.40
2022-12-03T09:32:18.284Z,0.60
2022-12-03T09:34:49.462Z,0.80
2022-12-03T09:37:20.321Z,1.00
2022-12-03T09:39:49.301Z,1.20
2022-12-03T09:42:18.799Z,1.40
2022-12-03T09:44:48.301Z,1.60
2022-12-03T09:47:25.220Z,1.70
2022-12-03T09:49:56.285Z,1.90
2022-12-03T09:52:34.336Z,2.00
2022-12-03T09:55:17.049Z,2.10
2022-12-03T09:57:54.161Z,2.10
2022-12-03T10:00:25.667Z,2.20
2022-12-03T10:03:11.731Z,2.30
2022-12-03T10:05:46.616Z,2.30
2022-12-03T10:08:22.135Z,2.40
2022-12-03T10:10:59.260Z,2.40
2022-12-03T10:13:35.300Z,2.50
2022-12-03T10:16:36.264Z,2.50
2022-12-03T10:19:04.680Z,2.50
2022-12-03T10:21:47.242Z,2.60
2022-12-03T10:24:34.347Z,2.60
2022-12-03T10:27:20.257Z,2.60
2022-12-03T10:30:03.547Z,2.60
2022-12-03T10:32:47.885Z,2.70
2022-12-03T10:35:22.353Z,2.70
2022-12-03T10:38:18.618Z,2.80
2022-12-03T10:40:46.974Z,2.80
2022-12-03T10:43:24.231Z,2.80
2022-12-03T10:46:11.454Z,2.80
2022-12-03T10:48:40.630Z,2.90
2022-12-03T10:51:24.842Z,2.90
2022-12-03T10:53:57.271Z,2.90
2022-12-03T10:56:27.618Z,2.90
2022-12-03T10:59:05.186Z,2.90
2022-12-03T11:01:33.866Z,2.90
2022-12-03T11:04:06.133Z,3.00
2022-12-03T11:06:36.600Z,3.00
2022-12-03T11:09:09.205Z,3.00
2022-12-03T11:11:39.802Z,3.00
2022-12-03T11:14:18.053Z,3.00
2022-12-03T11:17:03.078Z,2.90
2022-12-03T11:19:46.711Z,3.00
2022-12-03T11:22:29.696Z,3.00
2022-12-03T11:25:28.017Z,3.00
2022-12-03T11:28:22.362Z,3.00
2022-12-03T11:30:56.841Z,2.70
2022-12-03T11:33:49.232Z,1.30
2022-12-03T11:36:31.955Z,0.00
2022-12-03T11:39:12.077Z,-0.90
2022-12-03T11:42:01.376Z,-1.40
2022-12-03T11:44:31.735Z,-1.70
2022-12-03T11:47:02.098Z,-1.70
2022-12-03T11:49:41.296Z,-1.80
2022-12-03T11:52:33.901Z,-1.60
2022-12-03T11:55:45.810Z,-1.00
2022-12-03T11:58:30.857Z,-0.30
2022-12-03T12:01:08.413Z,0.30
2022-12-03T12:04:10.974Z,0.70
2022-12-03T12:06:44.565Z,1.00
2022-12-03T12:09:13.759Z,1.30
2022-12-03T12:11:44.916Z,1.50
2022-12-03T12:14:21.356Z,1.60
2022-12-03T12:17:04.190Z,1.80
2022-12-03T12:19:44.004Z,1.90
2022-12-03T12:22:27.477Z,2.00
2022-12-03T12:25:31.214Z,2.20
2022-12-03T12:28:08.239Z,2.30
2022-12-03T12:30:41.912Z,2.30
2022-12-03T12:33:23.665Z,2.40
2022-12-03T12:35:52.353Z,2.50
2022-12-03T12:38:30.237Z,2.60
2022-12-03T12:41:00.688Z,2.60
2022-12-03T12:43:33.056Z,2.70
2022-12-03T12:46:46.817Z,2.70
2022-12-03T12:49:15.092Z,2.80
2022-12-03T12:51:47.935Z,2.80
2022-12-03T12:54:18.556Z,2.80
2022-12-03T12:56:51.678Z,2.80
2022-12-03T12:59:24.521Z,2.90
2022-12-03T13:01:54.185Z,2.90
2022-12-03T13:04:24.598Z,2.90
2022-12-03T13:06:55.204Z,2.90
2022-12-03T13:09:36.621Z,3.00
2022-12-03T13:12:13.744Z,3.00
2022-12-03T13:14:43.201Z,3.00
2022-12-03T13:17:25.641Z,3.00
2022-12-03T13:20:06.665Z,3.10
2022-12-03T13:22:36.439Z,3.10
2022-12-03T13:28:32.724Z,3.10
2022-12-03T13:31:32.387Z,3.10
2022-12-03T13:34:02.168Z,3.00
2022-12-03T13:36:43.718Z,3.00
2022-12-03T13:39:41.775Z,3.00
2022-12-03T13:42:34.780Z,3.10
2022-12-03T13:45:11.000Z,3.10
2022-12-03T13:47:48.541Z,3.10
2022-12-03T13:50:39.518Z,3.10
2022-12-03T13:53:33.373Z,3.10
2022-12-03T13:56:40.221Z,3.00
2022-12-03T13:59:09.670Z,3.00
2022-12-03T14:01:39.131Z,3.00
2022-12-03T14:04:09.745Z,3.00
2022-12-03T14:06:57.959Z,3.10
2022-12-03T14:09:26.253Z,3.00
2022-12-03T14:12:17.766Z,3.00
2022-12-03T14:14:47.116Z,2.80
2022-12-03T14:17:16.713Z,2.70
2022-12-03T14:19:47.036Z,2.70
2022-12-03T14:22:23.056Z,2.70
2022-12-03T14:24:57.458Z,2.70
2022-12-03T14:27:28.771Z,2.70
2022-12-03T14:29:57.162Z,2.70
2022-12-03T14:32:29.402Z,2.70
2022-12-03T14:34:59.160Z,2.70
2022-12-03T14:37:27.296Z,2.70
2022-12-03T14:39:55.558Z,2.70
2022-12-03T14:42:25.192Z,2.80
2022-12-03T14:44:56.162Z,2.80
2022-12-03T14:47:23.431Z,2.80
2022-12-03T14:49:53.697Z,2.80
2022-12-03T14:52:22.239Z,2.80
2022-12-03T14:54:52.812Z,2.80
2022-12-03T14:57:19.856Z,2.80
2022-12-03T14:59:48.579Z,2.90
2022-12-03T15:02:19.477Z,2.90
2022-12-03T15:04:49.797Z,2.60
2022-12-03T15:07:20.148Z,1.20
2022-12-03T15:09:51.350Z,-0.50
2022-12-03T15:12:20.101Z,-1.60
2022-12-03T15:14:51.016Z,-2.40
2022-12-03T15:17:27.787Z,-2.80
2022-12-03T15:20:02.920Z,-3.20
2022-12-03T15:22:39.977Z,-3.50
2022-12-03T15:25:11.441Z,-3.80
2022-12-03T15:27:42.387Z,-3.90
2022-12-03T15:30:11.018Z,-4.10
2022-12-03T15:32:40.559Z,-4.20
2022-12-03T15:35:10.759Z,-4.30
2022-12-03T15:37:39.790Z,-4.30
2022-12-03T15:40:08.956Z,-4.40
2022-12-03T15:42:45.507Z,-4.40
2022-12-03T15:45:15.515Z,-4.40
2022-12-03T15:47:44.232Z,-4.50
2022-12-03T15:50:13.830Z,-4.60
2022-12-03T15:52:52.406Z,-4.60
2022-12-03T15:55:22.331Z,-4.60
2022-12-03T15:57:50.599Z,-4.70
2022-12-03T16:00:21.401Z,-3.70
2022-12-03T16:02:55.370Z,-2.80
2022-12-03T16:05:25.327Z,-2.20
2022-12-03T16:07:53.924Z,-1.70
2022-12-03T16:10:25.145Z,-1.30
2022-12-03T16:12:54.667Z,-1.00
2022-12-03T16:15:27.206Z,-0.70
2022-12-03T16:18:02.237Z,-0.40
2022-12-03T16:20:40.901Z,-0.10
2022-12-03T16:23:09.227Z,0.10
2022-12-03T16:25:39.566Z,0.40
2022-12-03T16:28:10.519Z,0.60
2022-12-03T16:30:39.856Z,0.70
2022-12-03T16:33:08.216Z,0.90
2022-12-03T16:35:35.536Z,1.00
2022-12-03T16:38:05.116Z,1.20
2022-12-03T16:40:34.843Z,1.30
2022-12-03T16:43:05.265Z,1.40
2022-12-03T16:45:51.437Z,1.50
2022-12-03T16:48:23.222Z,1.60
2022-12-03T16:50:51.535Z,1.60
2022-12-03T16:53:21.278Z,1.70
2022-12-03T16:55:49.742Z,1.80
2022-12-03T16:58:34.986Z,1.90
2022-12-03T17:01:04.180Z,1.90
2022-12-03T17:03:34.307Z,1.90
2022-12-03T17:06:03.226Z,2.00
2022-12-03T17:08:34.583Z,2.10
2022-12-03T17:11:11.566Z,2.10
2022-12-03T17:13:40.041Z,2.20
2022-12-03T17:16:10.429Z,2.20
2022-12-03T17:18:42.221Z,2.20
2022-12-03T17:21:10.781Z,2.30
2022-12-03T17:23:40.713Z,2.30
2022-12-03T17:26:11.881Z,2.40
2022-12-03T17:28:40.154Z,2.40
2022-12-03T17:31:13.110Z,2.40
2022-12-03T17:33:41.641Z,2.40
2022-12-03T17:36:10.076Z,2.40
2022-12-03T17:38:40.456Z,2.40
2022-12-03T17:41:10.767Z,2.50
2022-12-03T17:43:39.461Z,2.50
2022-12-03T17:46:07.679Z,2.50
2022-12-03T17:48:37.358Z,2.50
2022-12-03T17:51:09.340Z,2.50
2022-12-03T17:53:37.377Z,2.50
2022-12-03T17:56:06.078Z,2.50
2022-12-03T17:58:41.962Z,2.50
2022-12-03T18:01:18.438Z,2.60
2022-12-03T18:03:46.725Z,2.60
2022-12-03T18:06:18.041Z,2.60
2022-12-03T18:08:49.056Z,2.60
2022-12-03T18:11:25.669Z,2.60
2022-12-03T18:13:53.780Z,2.60
2022-12-03T18:16:20.813Z,2.60
2022-12-03T18:19:02.014Z,2.60
2022-12-03T18:21:37.305Z,2.60
2022-12-03T18:24:05.975Z,2.60
2022-12-03T18:26:34.137Z,2.60
2022-12-03T18:29:03.475Z,2.60
2022-12-03T18:31:34.426Z,2.60
2022-12-03T18:34:04.680Z,2.70
2022-12-03T18:36:36.415Z,2.70
2022-12-03T18:39:10.286Z,2.70
2022-12-03T18:41:39.937Z,2.70
2022-12-03T18:44:18.690Z,2.70
2022-12-03T18:46:55.703Z,2.80
2022-12-03T18:49:25.857Z,2.80
2022-12-03T18:52:02.661Z,2.80
2022-12-03T18:54:32.076Z,2.80
2022-12-03T18:57:02.440Z,2.80
2022-12-03T18:59:33.445Z,2.70
2022-12-03T19:02:04.413Z,2.70
2022-12-03T19:04:31.670Z,2.70
2022-12-03T19:07:01.076Z,2.70
2022-12-03T19:09:29.695Z,2.70
2022-12-03T19:12:05.842Z,2.80
2022-12-03T19:14:39.336Z,2.70
2022-12-03T19:17:10.031Z,2.70
2022-12-03T19:19:37.995Z,2.80
2022-12-03T19:22:08.101Z,2.80
2022-12-03T19:24:44.951Z,2.80
2022-12-03T19:27:22.176Z,2.80
2022-12-03T19:30:00.717Z,2.70
2022-12-03T19:32:38.067Z,2.70
2022-12-03T19:35:07.975Z,2.70
2022-12-03T19:37:46.415Z,2.70
2022-12-03T19:40:17.632Z,2.70
2022-12-03T19:42:46.014Z,2.80
2022-12-03T19:45:12.992Z,2.80
2022-12-03T19:47:43.530Z,2.80
2022-12-03T19:50:11.882Z,2.80
2022-12-03T19:52:41.256Z,2.80
2022-12-03T19:55:10.761Z,2.80
2022-12-03T19:57:46.842Z,2.70
2022-12-03T20:00:15.758Z,2.70
2022-12-03T20:02:53.189Z,2.70
2022-12-03T20:08:17.538Z,2.70
2022-12-03T20:10:55.896Z,2.70
2022-12-03T20:13:25.652Z,2.70
2022-12-03T20:15:54.536Z,2.80
2022-12-03T20:18:25.106Z,2.80
2022-12-03T20:21:14.391Z,2.80
2022-12-03T20:23:50.341Z,2.80
2022-12-03T20:26:20.457Z,2.80
2022-12-03T20:28:49.402Z,2.90
2022-12-03T20:31:23.796Z,2.90
2022-12-03T20:33:55.841Z,2.60
2022-12-03T20:36:45.696Z,1.00
2022-12-03T20:39:15.131Z,-0.80
2022-12-03T20:41:45.569Z,-1.80
2022-12-03T20:44:17.761Z,-2.60
2022-12-03T20:46:46.616Z,-3.00
2022-12-03T20:49:23.653Z,-3.40
2022-12-03T20:52:04.384Z,-3.60
2022-12-03T20:54:42.970Z,-3.80
2022-12-03T20:57:11.320Z,-4.00
2022-12-03T20:59:41.917Z,-4.10
2022-12-03T21:02:12.635Z,-4.20
2022-12-03T21:07:27.438Z,-4.30
2022-12-03T21:09:55.857Z,-4.40
2022-12-03T21:12:25.851Z,-4.40
2022-12-03T21:15:03.899Z,-4.40
2022-12-03T21:17:32.984Z,-4.50
2022-12-03T21:20:04.885Z,-4.60
2022-12-03T21:22:38.133Z,-4.50
2022-12-03T21:25:08.078Z,-4.30
2022-12-03T21:27:37.457Z,-4.10
2022-12-03T21:30:09.857Z,-3.80
2022-12-03T21:32:40.871Z,-3.60
2022-12-03T21:35:11.397Z,-3.40
2022-12-03T21:37:39.667Z,-3.20
2022-12-03T21:40:12.492Z,-1.50
2022-12-03T21:42:42.231Z,-1.30
2022-12-03T21:45:11.007Z,-1.80
2022-12-03T21:47:41.663Z,-2.20
2022-12-03T21:50:12.238Z,-2.00
2022-12-03T21:52:43.041Z,-1.40
2022-12-03T21:55:11.870Z,-0.80
2022-12-03T21:57:50.262Z,-0.40
2022-12-03T22:00:27.839Z,0.00
2022-12-03T22:03:04.269Z,0.40
2022-12-03T22:08:27.378Z,1.20
2022-12-03T22:10:57.758Z,1.30
2022-12-03T22:13:25.898Z,1.30
2022-12-03T22:15:54.630Z,1.40
2022-12-03T22:18:25.185Z,1.60
2022-12-03T22:21:01.861Z,1.60
2022-12-03T22:23:33.963Z,1.70
2022-12-03T22:26:05.211Z,1.80
2022-12-03T22:28:50.292Z,1.90
2022-12-03T22:31:30.481Z,1.90
2022-12-03T22:33:59.441Z,1.90
2022-12-03T22:36:27.896Z,2.00
2022-12-03T22:38:58.967Z,2.00
2022-12-03T22:41:27.017Z,2.10
2022-12-03T22:43:59.022Z,2.20
2022-12-03T22:46:28.641Z,2.20
2022-12-03T22:49:00.625Z,2.30
2022-12-03T22:51:33.731Z,2.30
2022-12-03T22:54:02.431Z,2.20
2022-12-03T22:56:38.158Z,2.20
2022-12-03T22:59:12.151Z,2.20
2022-12-03T23:01:41.867Z,2.20
2022-12-03T23:04:11.712Z,2.20
2022-12-03T23:06:40.576Z,2.20
2022-12-03T23:09:09.393Z,2.20
2022-12-03T23:11:42.721Z,2.30
2022-12-03T23:14:13.189Z,2.30
2022-12-03T23:16:41.474Z,2.40
2022-12-03T23:19:13.163Z,2.40
2022-12-03T23:21:43.735Z,2.40
2022-12-03T23:24:20.081Z,2.40
2022-12-03T23:26:48.671Z,2.50
2022-12-03T23:29:17.591Z,2.50
2022-12-03T23:31:46.422Z,2.50
2022-12-03T23:34:14.749Z,1.70
2022-12-03T23:36:45.141Z,0.20
2022-12-03T23:39:21.302Z,-1.20
2022-12-03T23:41:54.711Z,-1.90
2022-12-03T23:44:24.521Z,-2.40
2022-12-03T23:46:52.793Z,-2.60
2022-12-03T23:49:22.506Z,-2.70
2022-12-03T23:51:58.359Z,-2.80
2022-12-03T23:54:36.341Z,-2.90
2022-12-03T23:57:12.198Z,-2.90
2022-12-03T23:59:42.781Z,-2.90
